CheckWX is a tool to help pilots better visualize weather data.  It is not intended as a substitute for an official pre-flight weather briefing.

23:30:32 UTC

KASG METAR
Springdale Municipal Airport
Springdale, Arkansas, USA
Current

43 mins ago

KASG 162248Z 16005KT 10SM CLR 14/M06 A3010
Observed
Nov-16 @ 22:48 UTC
Wind
  • 160° at 5 KTS
Visibility
10 SM
Flight Rules
VFR
Cloud Levels
  • Clear skies
Temperature
14°C / 57°F
Dewpoint
-6°C / 21°F
Humidity
25%
Altimeter
30.1" Hg
Pressure
1019.32 hPa
Previous

2 hours ago

KASG 162148Z 16005KT 10SM CLR 16/M08 A3012
Observed
Nov-16 @ 21:48 UTC
Wind
  • 160° at 5 KTS
Visibility
10 SM
Flight Rules
VFR
Cloud Levels
  • Clear skies
Temperature
16°C / 61°F
Dewpoint
-8°C / 18°F
Humidity
19%
Altimeter
30.12" Hg
Pressure
1020.02 hPa
Previous

3 hours ago

KASG 162048Z 17004KT 10SM CLR 16/M06 A3013
Observed
Nov-16 @ 20:48 UTC
Wind
  • 170° at 4 KTS
Visibility
10 SM
Flight Rules
VFR
Cloud Levels
  • Clear skies
Temperature
16°C / 61°F
Dewpoint
-6°C / 21°F
Humidity
22%
Altimeter
30.13" Hg
Pressure
1020.32 hPa